sensor_id;sensor_type;location;lat;lon;timestamp;P1;durP1;ratioP1;P2;durP2;ratioP2
16612;SDS011;8419;52.358;9.752;2023-07-30T00:02:42;1.83;;;1.45;;
16612;SDS011;8419;52.358;9.752;2023-07-30T00:05:27;2.70;;;1.48;;
16612;SDS011;8419;52.358;9.752;2023-07-30T00:08:13;1.30;;;1.20;;
16612;SDS011;8419;52.358;9.752;2023-07-30T00:11:00;1.83;;;1.42;;
16612;SDS011;8419;52.358;9.752;2023-07-30T00:13:45;2.45;;;1.17;;
16612;SDS011;8419;52.358;9.752;2023-07-30T00:16:31;2.37;;;1.62;;
16612;SDS011;8419;52.358;9.752;2023-07-30T00:19:16;3.12;;;1.58;;
16612;SDS011;8419;52.358;9.752;2023-07-30T00:22:02;2.33;;;1.33;;
16612;SDS011;8419;52.358;9.752;2023-07-30T00:24:47;1.87;;;1.45;;
16612;SDS011;8419;52.358;9.752;2023-07-30T00:27:33;2.17;;;1.12;;
16612;SDS011;8419;52.358;9.752;2023-07-30T00:30:18;1.85;;;1.62;;
16612;SDS011;8419;52.358;9.752;2023-07-30T00:33:04;1.55;;;1.45;;
16612;SDS011;8419;52.358;9.752;2023-07-30T00:35:51;2.20;;;1.60;;
16612;SDS011;8419;52.358;9.752;2023-07-30T00:38:36;1.35;;;1.20;;
16612;SDS011;8419;52.358;9.752;2023-07-30T00:41:21;1.60;;;1.50;;
16612;SDS011;8419;52.358;9.752;2023-07-30T00:44:07;1.98;;;1.37;;
16612;SDS011;8419;52.358;9.752;2023-07-30T00:46:52;2.08;;;1.42;;
16612;SDS011;8419;52.358;9.752;2023-07-30T00:49:38;3.70;;;1.58;;
16612;SDS011;8419;52.358;9.752;2023-07-30T00:52:25;3.53;;;1.87;;
16612;SDS011;8419;52.358;9.752;2023-07-30T00:55:11;1.30;;;1.20;;
16612;SDS011;8419;52.358;9.752;2023-07-30T00:57:56;1.50;;;1.40;;
16612;SDS011;8419;52.358;9.752;2023-07-30T01:00:42;1.83;;;1.30;;
16612;SDS011;8419;52.358;9.752;2023-07-30T01:03:29;1.20;;;1.10;;
16612;SDS011;8419;52.358;9.752;2023-07-30T01:06:15;2.45;;;1.67;;
16612;SDS011;8419;52.358;9.752;2023-07-30T01:09:00;2.50;;;1.77;;
16612;SDS011;8419;52.358;9.752;2023-07-30T01:11:47;2.00;;;1.80;;
16612;SDS011;8419;52.358;9.752;2023-07-30T01:14:32;1.75;;;1.65;;
16612;SDS011;8419;52.358;9.752;2023-07-30T01:17:22;1.65;;;1.52;;
16612;SDS011;8419;52.358;9.752;2023-07-30T01:20:09;4.05;;;1.77;;
16612;SDS011;8419;52.358;9.752;2023-07-30T01:22:55;2.12;;;1.70;;
16612;SDS011;8419;52.358;9.752;2023-07-30T01:25:41;3.42;;;1.50;;
16612;SDS011;8419;52.358;9.752;2023-07-30T01:28:28;2.25;;;1.55;;
16612;SDS011;8419;52.358;9.752;2023-07-30T01:31:36;3.31;;;1.76;;
16612;SDS011;8419;52.358;9.752;2023-07-30T01:34:24;4.90;;;2.40;;
16612;SDS011;8419;52.358;9.752;2023-07-30T01:37:12;2.67;;;1.83;;
16612;SDS011;8419;52.358;9.752;2023-07-30T01:39:59;4.45;;;2.47;;
16612;SDS011;8419;52.358;9.752;2023-07-30T01:42:46;2.03;;;1.83;;
16612;SDS011;8419;52.358;9.752;2023-07-30T01:45:32;5.70;;;2.60;;
16612;SDS011;8419;52.358;9.752;2023-07-30T01:48:19;2.10;;;1.90;;
16612;SDS011;8419;52.358;9.752;2023-07-30T01:51:04;3.83;;;2.20;;
16612;SDS011;8419;52.358;9.752;2023-07-30T01:53:50;2.85;;;2.40;;
16612;SDS011;8419;52.358;9.752;2023-07-30T01:56:36;4.03;;;2.55;;
16612;SDS011;8419;52.358;9.752;2023-07-30T01:59:21;3.00;;;2.75;;
16612;SDS011;8419;52.358;9.752;2023-07-30T02:02:07;5.85;;;3.10;;
16612;SDS011;8419;52.358;9.752;2023-07-30T02:04:53;3.03;;;2.40;;
16612;SDS011;8419;52.358;9.752;2023-07-30T02:07:38;3.25;;;2.12;;
16612;SDS011;8419;52.358;9.752;2023-07-30T02:10:26;4.85;;;2.30;;
16612;SDS011;8419;52.358;9.752;2023-07-30T02:13:11;2.22;;;2.03;;
16612;SDS011;8419;52.358;9.752;2023-07-30T02:15:56;4.45;;;2.78;;
16612;SDS011;8419;52.358;9.752;2023-07-30T02:18:42;3.03;;;2.00;;
16612;SDS011;8419;52.358;9.752;2023-07-30T02:21:28;2.87;;;2.40;;
16612;SDS011;8419;52.358;9.752;2023-07-30T02:24:16;3.40;;;2.70;;
16612;SDS011;8419;52.358;9.752;2023-07-30T02:27:01;3.08;;;2.70;;
16612;SDS011;8419;52.358;9.752;2023-07-30T02:29:47;3.47;;;2.05;;
16612;SDS011;8419;52.358;9.752;2023-07-30T02:32:32;3.00;;;2.55;;
16612;SDS011;8419;52.358;9.752;2023-07-30T02:35:18;3.83;;;2.55;;
16612;SDS011;8419;52.358;9.752;2023-07-30T02:38:03;2.92;;;2.30;;
16612;SDS011;8419;52.358;9.752;2023-07-30T02:40:49;4.03;;;2.08;;
16612;SDS011;8419;52.358;9.752;2023-07-30T02:43:34;3.70;;;2.20;;
16612;SDS011;8419;52.358;9.752;2023-07-30T02:46:20;2.75;;;2.00;;
16612;SDS011;8419;52.358;9.752;2023-07-30T02:49:05;4.35;;;2.10;;
16612;SDS011;8419;52.358;9.752;2023-07-30T02:51:53;2.67;;;1.80;;
16612;SDS011;8419;52.358;9.752;2023-07-30T02:54:38;2.92;;;1.95;;
16612;SDS011;8419;52.358;9.752;2023-07-30T02:57:23;3.92;;;1.73;;
16612;SDS011;8419;52.358;9.752;2023-07-30T03:00:10;4.25;;;1.90;;
16612;SDS011;8419;52.358;9.752;2023-07-30T03:02:56;2.67;;;1.45;;
16612;SDS011;8419;52.358;9.752;2023-07-30T03:05:42;3.50;;;1.58;;
16612;SDS011;8419;52.358;9.752;2023-07-30T03:08:28;2.62;;;1.60;;
16612;SDS011;8419;52.358;9.752;2023-07-30T03:11:13;5.07;;;1.60;;
16612;SDS011;8419;52.358;9.752;2023-07-30T03:13:59;3.42;;;1.80;;
16612;SDS011;8419;52.358;9.752;2023-07-30T03:16:45;3.47;;;1.65;;
16612;SDS011;8419;52.358;9.752;2023-07-30T03:19:31;3.80;;;1.90;;
16612;SDS011;8419;52.358;9.752;2023-07-30T03:22:16;5.30;;;2.08;;
16612;SDS011;8419;52.358;9.752;2023-07-30T03:25:02;3.58;;;1.75;;
16612;SDS011;8419;52.358;9.752;2023-07-30T03:27:48;2.47;;;1.77;;
16612;SDS011;8419;52.358;9.752;2023-07-30T03:30:34;3.67;;;1.75;;
16612;SDS011;8419;52.358;9.752;2023-07-30T03:33:20;7.72;;;2.03;;
16612;SDS011;8419;52.358;9.752;2023-07-30T03:36:06;4.10;;;1.90;;
16612;SDS011;8419;52.358;9.752;2023-07-30T03:38:52;4.65;;;2.22;;
16612;SDS011;8419;52.358;9.752;2023-07-30T03:41:38;5.40;;;1.80;;
16612;SDS011;8419;52.358;9.752;2023-07-30T03:44:24;6.00;;;1.70;;
16612;SDS011;8419;52.358;9.752;2023-07-30T03:47:09;4.25;;;2.08;;
16612;SDS011;8419;52.358;9.752;2023-07-30T03:49:55;2.80;;;1.60;;
16612;SDS011;8419;52.358;9.752;2023-07-30T03:52:41;6.43;;;2.00;;
16612;SDS011;8419;52.358;9.752;2023-07-30T03:55:26;5.30;;;2.03;;
16612;SDS011;8419;52.358;9.752;2023-07-30T03:58:12;2.55;;;1.58;;
16612;SDS011;8419;52.358;9.752;2023-07-30T04:00:58;2.55;;;1.83;;
16612;SDS011;8419;52.358;9.752;2023-07-30T04:03:43;4.82;;;2.20;;
16612;SDS011;8419;52.358;9.752;2023-07-30T04:06:29;4.32;;;2.05;;
16612;SDS011;8419;52.358;9.752;2023-07-30T04:09:16;4.15;;;2.12;;
16612;SDS011;8419;52.358;9.752;2023-07-30T04:12:01;4.25;;;2.20;;
16612;SDS011;8419;52.358;9.752;2023-07-30T04:14:47;5.62;;;2.15;;
16612;SDS011;8419;52.358;9.752;2023-07-30T04:17:33;6.82;;;2.47;;
16612;SDS011;8419;52.358;9.752;2023-07-30T04:20:19;3.87;;;2.17;;
16612;SDS011;8419;52.358;9.752;2023-07-30T04:23:05;4.30;;;2.05;;
16612;SDS011;8419;52.358;9.752;2023-07-30T04:25:50;4.78;;;2.10;;
16612;SDS011;8419;52.358;9.752;2023-07-30T04:28:36;3.83;;;2.00;;
16612;SDS011;8419;52.358;9.752;2023-07-30T04:31:22;5.20;;;2.22;;
16612;SDS011;8419;52.358;9.752;2023-07-30T04:34:08;5.45;;;2.00;;
16612;SDS011;8419;52.358;9.752;2023-07-30T04:36:53;8.20;;;2.30;;
16612;SDS011;8419;52.358;9.752;2023-07-30T04:39:39;6.37;;;2.12;;
16612;SDS011;8419;52.358;9.752;2023-07-30T04:42:24;5.05;;;2.10;;
16612;SDS011;8419;52.358;9.752;2023-07-30T04:45:10;2.95;;;1.85;;
16612;SDS011;8419;52.358;9.752;2023-07-30T04:47:56;3.40;;;2.17;;
16612;SDS011;8419;52.358;9.752;2023-07-30T04:50:41;4.87;;;2.25;;
16612;SDS011;8419;52.358;9.752;2023-07-30T04:53:27;4.53;;;2.10;;
16612;SDS011;8419;52.358;9.752;2023-07-30T04:56:12;7.85;;;2.50;;
16612;SDS011;8419;52.358;9.752;2023-07-30T04:58:58;7.75;;;2.20;;
16612;SDS011;8419;52.358;9.752;2023-07-30T05:01:45;5.53;;;2.78;;
16612;SDS011;8419;52.358;9.752;2023-07-30T05:04:31;5.95;;;3.05;;
16612;SDS011;8419;52.358;9.752;2023-07-30T05:07:16;4.80;;;2.80;;
16612;SDS011;8419;52.358;9.752;2023-07-30T05:10:02;4.30;;;2.70;;
16612;SDS011;8419;52.358;9.752;2023-07-30T05:12:51;5.47;;;2.70;;
16612;SDS011;8419;52.358;9.752;2023-07-30T05:15:36;7.00;;;2.50;;
16612;SDS011;8419;52.358;9.752;2023-07-30T05:18:21;6.55;;;2.90;;
16612;SDS011;8419;52.358;9.752;2023-07-30T05:21:06;5.78;;;3.65;;
16612;SDS011;8419;52.358;9.752;2023-07-30T05:23:52;5.10;;;3.47;;
16612;SDS011;8419;52.358;9.752;2023-07-30T05:26:37;9.18;;;3.33;;
16612;SDS011;8419;52.358;9.752;2023-07-30T05:29:23;6.40;;;3.20;;
16612;SDS011;8419;52.358;9.752;2023-07-30T05:32:08;4.80;;;3.22;;
16612;SDS011;8419;52.358;9.752;2023-07-30T05:34:54;3.45;;;2.87;;
16612;SDS011;8419;52.358;9.752;2023-07-30T05:37:40;5.28;;;3.33;;
16612;SDS011;8419;52.358;9.752;2023-07-30T05:40:26;6.12;;;4.25;;
16612;SDS011;8419;52.358;9.752;2023-07-30T05:43:11;5.35;;;3.65;;
16612;SDS011;8419;52.358;9.752;2023-07-30T05:45:57;6.45;;;3.65;;
16612;SDS011;8419;52.358;9.752;2023-07-30T05:48:43;4.40;;;3.42;;
16612;SDS011;8419;52.358;9.752;2023-07-30T05:51:28;5.97;;;3.40;;
16612;SDS011;8419;52.358;9.752;2023-07-30T05:54:14;5.87;;;2.92;;
16612;SDS011;8419;52.358;9.752;2023-07-30T05:56:59;6.65;;;3.40;;
16612;SDS011;8419;52.358;9.752;2023-07-30T05:59:45;6.47;;;3.30;;
16612;SDS011;8419;52.358;9.752;2023-07-30T06:02:31;5.80;;;2.92;;
16612;SDS011;8419;52.358;9.752;2023-07-30T06:05:16;5.28;;;2.90;;
16612;SDS011;8419;52.358;9.752;2023-07-30T06:08:02;7.22;;;3.50;;
16612;SDS011;8419;52.358;9.752;2023-07-30T06:10:47;5.53;;;2.92;;
16612;SDS011;8419;52.358;9.752;2023-07-30T06:13:33;5.07;;;2.67;;
16612;SDS011;8419;52.358;9.752;2023-07-30T06:16:19;6.35;;;3.62;;
16612;SDS011;8419;52.358;9.752;2023-07-30T06:19:04;7.70;;;2.67;;
16612;SDS011;8419;52.358;9.752;2023-07-30T06:21:50;4.55;;;2.87;;
16612;SDS011;8419;52.358;9.752;2023-07-30T06:24:35;8.40;;;2.85;;
16612;SDS011;8419;52.358;9.752;2023-07-30T06:27:20;2.95;;;2.30;;
16612;SDS011;8419;52.358;9.752;2023-07-30T06:30:07;6.90;;;2.75;;
16612;SDS011;8419;52.358;9.752;2023-07-30T06:32:53;3.90;;;2.45;;
16612;SDS011;8419;52.358;9.752;2023-07-30T06:35:39;4.95;;;2.15;;
16612;SDS011;8419;52.358;9.752;2023-07-30T06:38:24;5.45;;;2.42;;
16612;SDS011;8419;52.358;9.752;2023-07-30T06:41:10;1.80;;;1.15;;
16612;SDS011;8419;52.358;9.752;2023-07-30T06:43:56;6.65;;;1.83;;
16612;SDS011;8419;52.358;9.752;2023-07-30T06:46:42;3.67;;;2.22;;
16612;SDS011;8419;52.358;9.752;2023-07-30T06:49:27;4.18;;;1.98;;
16612;SDS011;8419;52.358;9.752;2023-07-30T06:52:14;2.50;;;1.73;;
16612;SDS011;8419;52.358;9.752;2023-07-30T06:55:00;4.43;;;1.77;;
16612;SDS011;8419;52.358;9.752;2023-07-30T06:57:46;4.82;;;1.87;;
16612;SDS011;8419;52.358;9.752;2023-07-30T07:00:33;4.20;;;1.40;;
16612;SDS011;8419;52.358;9.752;2023-07-30T07:03:18;4.85;;;1.80;;
16612;SDS011;8419;52.358;9.752;2023-07-30T07:06:04;3.17;;;1.75;;
16612;SDS011;8419;52.358;9.752;2023-07-30T07:08:49;3.70;;;1.60;;
16612;SDS011;8419;52.358;9.752;2023-07-30T07:11:35;3.72;;;1.40;;
16612;SDS011;8419;52.358;9.752;2023-07-30T07:14:20;1.90;;;1.20;;
16612;SDS011;8419;52.358;9.752;2023-07-30T07:17:06;1.90;;;1.15;;
16612;SDS011;8419;52.358;9.752;2023-07-30T07:19:52;2.65;;;1.17;;
16612;SDS011;8419;52.358;9.752;2023-07-30T07:22:37;2.15;;;1.20;;
16612;SDS011;8419;52.358;9.752;2023-07-30T07:25:23;5.90;;;1.70;;
16612;SDS011;8419;52.358;9.752;2023-07-30T07:28:09;1.50;;;0.80;;
16612;SDS011;8419;52.358;9.752;2023-07-30T07:30:55;2.30;;;0.93;;
16612;SDS011;8419;52.358;9.752;2023-07-30T07:33:40;3.85;;;1.50;;
16612;SDS011;8419;52.358;9.752;2023-07-30T07:36:28;4.55;;;1.42;;
16612;SDS011;8419;52.358;9.752;2023-07-30T07:39:13;3.45;;;1.73;;
16612;SDS011;8419;52.358;9.752;2023-07-30T07:41:59;3.83;;;1.17;;
16612;SDS011;8419;52.358;9.752;2023-07-30T07:44:45;3.50;;;1.45;;
16612;SDS011;8419;52.358;9.752;2023-07-30T07:47:31;1.40;;;1.12;;
16612;SDS011;8419;52.358;9.752;2023-07-30T07:50:16;3.75;;;1.60;;
16612;SDS011;8419;52.358;9.752;2023-07-30T07:53:02;1.73;;;1.23;;
16612;SDS011;8419;52.358;9.752;2023-07-30T07:55:47;3.67;;;1.50;;
16612;SDS011;8419;52.358;9.752;2023-07-30T07:58:33;3.42;;;1.60;;
16612;SDS011;8419;52.358;9.752;2023-07-30T08:01:20;4.32;;;1.25;;
16612;SDS011;8419;52.358;9.752;2023-07-30T08:04:05;3.70;;;1.10;;
16612;SDS011;8419;52.358;9.752;2023-07-30T08:06:52;4.72;;;2.05;;
16612;SDS011;8419;52.358;9.752;2023-07-30T08:09:38;2.00;;;1.27;;
16612;SDS011;8419;52.358;9.752;2023-07-30T08:12:23;5.57;;;1.85;;
16612;SDS011;8419;52.358;9.752;2023-07-30T08:15:09;4.78;;;1.80;;
16612;SDS011;8419;52.358;9.752;2023-07-30T08:17:55;3.95;;;1.87;;
16612;SDS011;8419;52.358;9.752;2023-07-30T08:20:41;3.15;;;1.12;;
16612;SDS011;8419;52.358;9.752;2023-07-30T08:23:26;0.60;;;0.60;;
16612;SDS011;8419;52.358;9.752;2023-07-30T08:26:12;6.15;;;1.95;;
16612;SDS011;8419;52.358;9.752;2023-07-30T08:28:58;3.58;;;1.90;;
16612;SDS011;8419;52.358;9.752;2023-07-30T08:31:44;2.25;;;1.67;;
16612;SDS011;8419;52.358;9.752;2023-07-30T08:34:29;4.20;;;2.10;;
16612;SDS011;8419;52.358;9.752;2023-07-30T08:37:15;5.80;;;2.37;;
16612;SDS011;8419;52.358;9.752;2023-07-30T08:40:00;4.00;;;2.12;;
16612;SDS011;8419;52.358;9.752;2023-07-30T08:42:47;5.10;;;2.62;;
16612;SDS011;8419;52.358;9.752;2023-07-30T08:45:32;5.22;;;1.85;;
16612;SDS011;8419;52.358;9.752;2023-07-30T08:48:18;6.55;;;2.58;;
16612;SDS011;8419;52.358;9.752;2023-07-30T08:51:03;2.97;;;1.75;;
16612;SDS011;8419;52.358;9.752;2023-07-30T08:53:49;2.80;;;2.10;;
16612;SDS011;8419;52.358;9.752;2023-07-30T08:56:36;5.32;;;1.90;;
16612;SDS011;8419;52.358;9.752;2023-07-30T08:59:21;5.35;;;2.53;;
16612;SDS011;8419;52.358;9.752;2023-07-30T09:02:10;3.20;;;2.12;;
16612;SDS011;8419;52.358;9.752;2023-07-30T09:04:58;3.50;;;2.40;;
16612;SDS011;8419;52.358;9.752;2023-07-30T09:07:45;2.97;;;2.28;;
16612;SDS011;8419;52.358;9.752;2023-07-30T09:10:32;4.05;;;2.58;;
16612;SDS011;8419;52.358;9.752;2023-07-30T09:13:21;4.55;;;3.12;;
16612;SDS011;8419;52.358;9.752;2023-07-30T09:16:11;3.75;;;2.58;;
16612;SDS011;8419;52.358;9.752;2023-07-30T09:18:57;4.25;;;3.33;;
16612;SDS011;8419;52.358;9.752;2023-07-30T09:21:43;6.05;;;2.45;;
16612;SDS011;8419;52.358;9.752;2023-07-30T09:24:30;4.07;;;3.30;;
16612;SDS011;8419;52.358;9.752;2023-07-30T09:27:19;5.70;;;2.30;;
16612;SDS011;8419;52.358;9.752;2023-07-30T09:30:07;2.67;;;2.47;;
16612;SDS011;8419;52.358;9.752;2023-07-30T09:32:55;6.18;;;3.53;;
16612;SDS011;8419;52.358;9.752;2023-07-30T09:35:42;1.65;;;1.55;;
16612;SDS011;8419;52.358;9.752;2023-07-30T09:38:29;6.15;;;3.45;;
16612;SDS011;8419;52.358;9.752;2023-07-30T09:41:17;3.10;;;2.80;;
16612;SDS011;8419;52.358;9.752;2023-07-30T09:44:06;5.53;;;3.28;;
16612;SDS011;8419;52.358;9.752;2023-07-30T09:46:52;4.90;;;3.03;;
16612;SDS011;8419;52.358;9.752;2023-07-30T09:49:37;5.25;;;2.83;;
16612;SDS011;8419;52.358;9.752;2023-07-30T09:52:23;3.80;;;2.55;;
16612;SDS011;8419;52.358;9.752;2023-07-30T09:55:09;6.95;;;2.87;;
16612;SDS011;8419;52.358;9.752;2023-07-30T09:57:55;5.80;;;2.60;;
16612;SDS011;8419;52.358;9.752;2023-07-30T10:00:41;8.27;;;2.95;;
16612;SDS011;8419;52.358;9.752;2023-07-30T10:03:28;4.43;;;2.58;;
16612;SDS011;8419;52.358;9.752;2023-07-30T10:06:17;7.47;;;2.72;;
16612;SDS011;8419;52.358;9.752;2023-07-30T10:09:03;7.12;;;2.90;;
16612;SDS011;8419;52.358;9.752;2023-07-30T10:11:51;6.00;;;2.85;;
16612;SDS011;8419;52.358;9.752;2023-07-30T10:14:38;5.85;;;2.72;;
16612;SDS011;8419;52.358;9.752;2023-07-30T10:17:24;4.35;;;3.12;;
16612;SDS011;8419;52.358;9.752;2023-07-30T10:20:20;5.35;;;3.65;;
16612;SDS011;8419;52.358;9.752;2023-07-30T10:23:07;9.15;;;3.62;;
16612;SDS011;8419;52.358;9.752;2023-07-30T10:25:53;6.22;;;3.75;;
16612;SDS011;8419;52.358;9.752;2023-07-30T10:28:40;8.50;;;3.58;;
16612;SDS011;8419;52.358;9.752;2023-07-30T10:31:34;8.35;;;3.95;;
16612;SDS011;8419;52.358;9.752;2023-07-30T10:34:25;7.05;;;4.18;;
16612;SDS011;8419;52.358;9.752;2023-07-30T10:37:12;4.85;;;4.35;;
16612;SDS011;8419;52.358;9.752;2023-07-30T10:40:15;5.87;;;4.55;;
16612;SDS011;8419;52.358;9.752;2023-07-30T10:43:02;9.60;;;4.50;;
16612;SDS011;8419;52.358;9.752;2023-07-30T10:45:58;5.40;;;4.43;;
16612;SDS011;8419;52.358;9.752;2023-07-30T10:48:45;4.65;;;3.58;;
16612;SDS011;8419;52.358;9.752;2023-07-30T10:51:32;5.55;;;3.90;;
16612;SDS011;8419;52.358;9.752;2023-07-30T10:54:18;7.65;;;4.68;;
16612;SDS011;8419;52.358;9.752;2023-07-30T10:57:04;8.25;;;5.20;;
16612;SDS011;8419;52.358;9.752;2023-07-30T10:59:50;7.97;;;5.10;;
16612;SDS011;8419;52.358;9.752;2023-07-30T11:02:39;8.18;;;5.18;;
16612;SDS011;8419;52.358;9.752;2023-07-30T11:05:24;9.60;;;5.40;;
16612;SDS011;8419;52.358;9.752;2023-07-30T11:08:10;6.03;;;4.53;;
16612;SDS011;8419;52.358;9.752;2023-07-30T11:10:55;4.40;;;3.10;;
16612;SDS011;8419;52.358;9.752;2023-07-30T11:13:42;6.87;;;3.95;;
16612;SDS011;8419;52.358;9.752;2023-07-30T11:16:30;6.97;;;3.87;;
16612;SDS011;8419;52.358;9.752;2023-07-30T11:19:15;6.82;;;5.40;;
16612;SDS011;8419;52.358;9.752;2023-07-30T11:22:01;8.32;;;2.37;;
16612;SDS011;8419;52.358;9.752;2023-07-30T11:24:51;9.38;;;5.55;;
16612;SDS011;8419;52.358;9.752;2023-07-30T11:27:45;8.68;;;6.22;;
16612;SDS011;8419;52.358;9.752;2023-07-30T11:30:31;9.48;;;6.05;;
16612;SDS011;8419;52.358;9.752;2023-07-30T11:33:17;9.90;;;5.80;;
16612;SDS011;8419;52.358;9.752;2023-07-30T11:36:03;12.00;;;6.93;;
16612;SDS011;8419;52.358;9.752;2023-07-30T11:38:51;7.72;;;3.45;;
16612;SDS011;8419;52.358;9.752;2023-07-30T11:41:37;9.70;;;6.80;;
16612;SDS011;8419;52.358;9.752;2023-07-30T11:44:30;11.10;;;6.93;;
16612;SDS011;8419;52.358;9.752;2023-07-30T11:47:21;7.87;;;5.68;;
16612;SDS011;8419;52.358;9.752;2023-07-30T11:50:07;10.07;;;7.37;;
16612;SDS011;8419;52.358;9.752;2023-07-30T11:52:54;8.43;;;5.22;;
16612;SDS011;8419;52.358;9.752;2023-07-30T11:55:40;8.27;;;5.80;;
16612;SDS011;8419;52.358;9.752;2023-07-30T11:58:28;9.43;;;7.30;;
16612;SDS011;8419;52.358;9.752;2023-07-30T12:01:14;8.93;;;5.82;;
16612;SDS011;8419;52.358;9.752;2023-07-30T12:04:00;7.30;;;5.72;;
16612;SDS011;8419;52.358;9.752;2023-07-30T12:06:47;11.75;;;6.28;;
16612;SDS011;8419;52.358;9.752;2023-07-30T12:09:35;6.00;;;4.40;;
16612;SDS011;8419;52.358;9.752;2023-07-30T12:12:25;6.70;;;5.50;;
16612;SDS011;8419;52.358;9.752;2023-07-30T12:15:12;7.32;;;5.05;;
16612;SDS011;8419;52.358;9.752;2023-07-30T12:17:58;6.85;;;4.87;;
16612;SDS011;8419;52.358;9.752;2023-07-30T12:20:43;7.50;;;5.12;;
16612;SDS011;8419;52.358;9.752;2023-07-30T12:23:29;4.62;;;4.15;;
16612;SDS011;8419;52.358;9.752;2023-07-30T12:26:18;5.05;;;4.35;;
16612;SDS011;8419;52.358;9.752;2023-07-30T12:29:03;7.68;;;4.20;;
16612;SDS011;8419;52.358;9.752;2023-07-30T12:31:49;4.90;;;3.53;;
16612;SDS011;8419;52.358;9.752;2023-07-30T12:34:37;5.32;;;4.00;;
16612;SDS011;8419;52.358;9.752;2023-07-30T12:37:23;6.25;;;4.50;;
16612;SDS011;8419;52.358;9.752;2023-07-30T12:40:12;6.43;;;4.30;;
16612;SDS011;8419;52.358;9.752;2023-07-30T12:42:57;7.37;;;4.05;;
16612;SDS011;8419;52.358;9.752;2023-07-30T12:45:42;5.45;;;4.07;;
16612;SDS011;8419;52.358;9.752;2023-07-30T12:48:29;5.07;;;4.10;;
16612;SDS011;8419;52.358;9.752;2023-07-30T12:51:14;6.70;;;3.97;;
16612;SDS011;8419;52.358;9.752;2023-07-30T12:54:00;4.97;;;3.22;;
16612;SDS011;8419;52.358;9.752;2023-07-30T12:56:45;4.32;;;3.00;;
16612;SDS011;8419;52.358;9.752;2023-07-30T12:59:31;5.15;;;3.67;;
16612;SDS011;8419;52.358;9.752;2023-07-30T13:02:17;3.78;;;2.85;;
16612;SDS011;8419;52.358;9.752;2023-07-30T13:05:03;5.30;;;3.12;;
16612;SDS011;8419;52.358;9.752;2023-07-30T13:07:49;2.20;;;1.83;;
16612;SDS011;8419;52.358;9.752;2023-07-30T13:10:34;5.53;;;2.45;;
16612;SDS011;8419;52.358;9.752;2023-07-30T13:13:20;5.70;;;2.80;;
16612;SDS011;8419;52.358;9.752;2023-07-30T13:16:07;3.95;;;1.73;;
16612;SDS011;8419;52.358;9.752;2023-07-30T13:18:52;4.78;;;3.10;;
16612;SDS011;8419;52.358;9.752;2023-07-30T13:21:41;4.65;;;2.70;;
16612;SDS011;8419;52.358;9.752;2023-07-30T13:24:27;5.85;;;2.80;;
16612;SDS011;8419;52.358;9.752;2023-07-30T13:27:16;2.55;;;2.35;;
16612;SDS011;8419;52.358;9.752;2023-07-30T13:30:02;4.85;;;2.37;;
16612;SDS011;8419;52.358;9.752;2023-07-30T13:32:48;4.78;;;2.70;;
16612;SDS011;8419;52.358;9.752;2023-07-30T13:35:34;4.10;;;1.80;;
16612;SDS011;8419;52.358;9.752;2023-07-30T13:38:20;5.53;;;2.97;;
16612;SDS011;8419;52.358;9.752;2023-07-30T13:41:06;5.45;;;2.72;;
16612;SDS011;8419;52.358;9.752;2023-07-30T13:43:52;4.05;;;2.62;;
16612;SDS011;8419;52.358;9.752;2023-07-30T13:46:38;3.25;;;2.40;;
16612;SDS011;8419;52.358;9.752;2023-07-30T13:49:24;5.53;;;2.85;;
16612;SDS011;8419;52.358;9.752;2023-07-30T13:52:10;4.37;;;2.80;;
16612;SDS011;8419;52.358;9.752;2023-07-30T13:54:55;7.15;;;2.85;;
16612;SDS011;8419;52.358;9.752;2023-07-30T13:57:42;4.37;;;3.28;;
16612;SDS011;8419;52.358;9.752;2023-07-30T14:00:27;2.53;;;1.95;;
16612;SDS011;8419;52.358;9.752;2023-07-30T14:03:12;5.05;;;2.28;;
16612;SDS011;8419;52.358;9.752;2023-07-30T14:05:58;4.37;;;2.33;;
16612;SDS011;8419;52.358;9.752;2023-07-30T14:08:44;1.73;;;1.23;;
16612;SDS011;8419;52.358;9.752;2023-07-30T14:11:29;4.40;;;1.92;;
16612;SDS011;8419;52.358;9.752;2023-07-30T14:14:15;4.03;;;1.60;;
16612;SDS011;8419;52.358;9.752;2023-07-30T14:17:01;4.05;;;2.50;;
16612;SDS011;8419;52.358;9.752;2023-07-30T14:19:50;1.27;;;1.17;;
16612;SDS011;8419;52.358;9.752;2023-07-30T14:22:36;6.55;;;1.10;;
16612;SDS011;8419;52.358;9.752;2023-07-30T14:25:22;2.65;;;1.30;;
16612;SDS011;8419;52.358;9.752;2023-07-30T14:28:09;4.10;;;1.25;;
16612;SDS011;8419;52.358;9.752;2023-07-30T14:30:54;5.05;;;1.30;;
16612;SDS011;8419;52.358;9.752;2023-07-30T14:33:40;1.45;;;1.00;;
16612;SDS011;8419;52.358;9.752;2023-07-30T14:36:28;2.05;;;0.88;;
16612;SDS011;8419;52.358;9.752;2023-07-30T14:39:14;2.28;;;1.40;;
16612;SDS011;8419;52.358;9.752;2023-07-30T14:42:00;1.10;;;0.90;;
16612;SDS011;8419;52.358;9.752;2023-07-30T14:44:45;1.60;;;1.15;;
16612;SDS011;8419;52.358;9.752;2023-07-30T14:47:31;1.85;;;0.88;;
16612;SDS011;8419;52.358;9.752;2023-07-30T14:50:17;3.15;;;1.25;;
16612;SDS011;8419;52.358;9.752;2023-07-30T14:53:02;4.95;;;1.12;;
16612;SDS011;8419;52.358;9.752;2023-07-30T14:55:48;3.75;;;1.00;;
16612;SDS011;8419;52.358;9.752;2023-07-30T14:58:34;2.28;;;0.85;;
16612;SDS011;8419;52.358;9.752;2023-07-30T15:01:21;4.62;;;1.25;;
16612;SDS011;8419;52.358;9.752;2023-07-30T15:04:06;2.03;;;0.80;;
16612;SDS011;8419;52.358;9.752;2023-07-30T15:06:52;2.60;;;1.00;;
16612;SDS011;8419;52.358;9.752;2023-07-30T15:09:38;1.52;;;0.82;;
16612;SDS011;8419;52.358;9.752;2023-07-30T15:12:23;1.48;;;0.93;;
16612;SDS011;8419;52.358;9.752;2023-07-30T15:15:10;0.88;;;0.70;;
16612;SDS011;8419;52.358;9.752;2023-07-30T15:17:57;4.30;;;1.10;;
16612;SDS011;8419;52.358;9.752;2023-07-30T15:20:45;3.00;;;1.20;;
16612;SDS011;8419;52.358;9.752;2023-07-30T15:23:32;2.85;;;1.02;;
16612;SDS011;8419;52.358;9.752;2023-07-30T15:26:17;2.53;;;1.00;;
16612;SDS011;8419;52.358;9.752;2023-07-30T15:29:04;1.70;;;0.90;;
16612;SDS011;8419;52.358;9.752;2023-07-30T15:31:51;1.23;;;0.88;;
16612;SDS011;8419;52.358;9.752;2023-07-30T15:34:36;1.40;;;0.70;;
16612;SDS011;8419;52.358;9.752;2023-07-30T15:37:25;1.02;;;0.75;;
16612;SDS011;8419;52.358;9.752;2023-07-30T15:40:11;5.68;;;0.93;;
16612;SDS011;8419;52.358;9.752;2023-07-30T15:42:57;3.12;;;0.70;;
16612;SDS011;8419;52.358;9.752;2023-07-30T15:45:43;2.50;;;0.62;;
16612;SDS011;8419;52.358;9.752;2023-07-30T15:48:28;3.37;;;1.02;;
16612;SDS011;8419;52.358;9.752;2023-07-30T15:51:19;3.47;;;1.02;;
16612;SDS011;8419;52.358;9.752;2023-07-30T15:54:06;2.58;;;1.05;;
16612;SDS011;8419;52.358;9.752;2023-07-30T15:56:52;1.90;;;0.80;;
16612;SDS011;8419;52.358;9.752;2023-07-30T15:59:38;1.37;;;0.90;;
16612;SDS011;8419;52.358;9.752;2023-07-30T16:02:23;1.98;;;1.10;;
16612;SDS011;8419;52.358;9.752;2023-07-30T16:05:09;0.62;;;0.62;;
16612;SDS011;8419;52.358;9.752;2023-07-30T16:07:55;1.70;;;0.85;;
16612;SDS011;8419;52.358;9.752;2023-07-30T16:10:40;0.43;;;0.43;;
16612;SDS011;8419;52.358;9.752;2023-07-30T16:13:27;2.03;;;0.90;;
16612;SDS011;8419;52.358;9.752;2023-07-30T16:16:13;6.20;;;1.15;;
16612;SDS011;8419;52.358;9.752;2023-07-30T16:19:01;2.92;;;1.05;;
16612;SDS011;8419;52.358;9.752;2023-07-30T16:21:46;2.45;;;1.10;;
16612;SDS011;8419;52.358;9.752;2023-07-30T16:24:33;2.15;;;1.30;;
16612;SDS011;8419;52.358;9.752;2023-07-30T16:27:20;3.45;;;1.05;;
16612;SDS011;8419;52.358;9.752;2023-07-30T16:30:07;3.53;;;1.25;;
16612;SDS011;8419;52.358;9.752;2023-07-30T16:32:53;1.77;;;0.90;;
16612;SDS011;8419;52.358;9.752;2023-07-30T16:35:39;1.73;;;1.40;;
16612;SDS011;8419;52.358;9.752;2023-07-30T16:38:25;2.12;;;0.75;;
16612;SDS011;8419;52.358;9.752;2023-07-30T16:41:11;2.53;;;0.73;;
16612;SDS011;8419;52.358;9.752;2023-07-30T16:43:56;4.75;;;0.98;;
16612;SDS011;8419;52.358;9.752;2023-07-30T16:46:42;2.15;;;1.23;;
16612;SDS011;8419;52.358;9.752;2023-07-30T16:49:27;2.33;;;1.05;;
16612;SDS011;8419;52.358;9.752;2023-07-30T16:52:13;1.20;;;0.50;;
16612;SDS011;8419;52.358;9.752;2023-07-30T16:54:59;4.28;;;0.82;;
16612;SDS011;8419;52.358;9.752;2023-07-30T16:57:44;2.20;;;1.00;;